Time;durP1;ratioP1;P1;durP2;ratioP2;P2;SDS_P1;SDS_P2;PMS_P1;PMS_P2;Temp;Humidity;BMP_temperature;BMP_pressure;BME280_temperature;BME280_humidity;BME280_pressure;Samples;Min_cycle;Max_cycle;Signal;HPM_P1;HPM_P2
2022/02/24 00:00:20;;;;;;;8.80;4.70;;;1.80;99.90;;;;;;4851966;29;20519;-81
2022/02/24 00:03:05;;;;;;;6.93;4.80;;;2.00;99.90;;;;;;4866552;29;20378;-81
2022/02/24 00:05:53;;;;;;;5.07;4.10;;;2.00;99.90;;;;;;4866717;29;20391;-81
2022/02/24 00:08:37;;;;;;;7.00;4.90;;;1.80;99.90;;;;;;4866977;29;20480;-81
2022/02/24 00:11:21;;;;;;;4.53;4.13;;;1.90;99.90;;;;;;4866459;29;20395;-81
2022/02/24 00:14:06;;;;;;;8.07;4.90;;;2.00;99.90;;;;;;4866558;29;20441;-81
2022/02/24 00:16:51;;;;;;;4.17;3.87;;;2.10;99.90;;;;;;4866499;29;20516;-81
2022/02/24 00:19:36;;;;;;;2.80;2.60;;;2.20;99.90;;;;;;4878379;29;20616;-81
2022/02/24 00:22:20;;;;;;;4.37;3.93;;;2.10;99.90;;;;;;4866583;29;20473;-81
2022/02/24 00:25:06;;;;;;;8.03;4.90;;;2.20;99.90;;;;;;4867370;29;20422;-80
2022/02/24 00:27:50;;;;;;;6.97;4.10;;;2.10;99.90;;;;;;4866708;29;20440;-81
2022/02/24 00:30:35;;;;;;;5.83;3.87;;;2.10;99.90;;;;;;4866970;29;20398;-81
2022/02/24 00:33:19;;;;;;;5.50;3.50;;;2.10;99.90;;;;;;4879079;29;20486;-81
2022/02/24 00:36:05;;;;;;;10.00;4.17;;;2.10;99.90;;;;;;4865943;29;20907;-81
2022/02/24 00:38:50;;;;;;;4.60;3.90;;;2.20;99.90;;;;;;4851782;29;20407;-81
2022/02/24 00:41:34;;;;;;;10.20;4.00;;;2.30;99.90;;;;;;4866181;29;20920;-81
2022/02/24 00:44:19;;;;;;;6.33;4.10;;;2.30;99.90;;;;;;4877766;29;20382;-81
2022/02/24 00:47:04;;;;;;;6.80;3.77;;;2.50;99.90;;;;;;4866011;29;20444;-81
2022/02/24 00:49:49;;;;;;;10.43;5.10;;;2.80;99.90;;;;;;4865935;29;20391;-81
2022/02/24 00:52:33;;;;;;;4.00;3.60;;;2.60;99.90;;;;;;4865925;29;20953;-81
2022/02/24 00:55:18;;;;;;;4.53;3.97;;;2.60;99.90;;;;;;4865439;29;20497;-81
2022/02/24 00:58:02;;;;;;;3.93;3.50;;;2.50;99.90;;;;;;4865564;29;20908;-81
2022/02/24 01:00:47;;;;;;;3.63;3.40;;;2.50;99.90;;;;;;4869410;29;20398;-81
2022/02/24 01:03:31;;;;;;;9.00;4.73;;;2.60;99.90;;;;;;4869851;29;20377;-81
2022/02/24 01:06:16;;;;;;;3.70;3.40;;;2.60;99.90;;;;;;4869524;29;20403;-81
2022/02/24 01:09:00;;;;;;;6.60;4.67;;;2.40;99.90;;;;;;4882367;29;20715;-81
2022/02/24 01:11:45;;;;;;;8.93;4.17;;;2.50;99.90;;;;;;4872792;29;20386;-81
2022/02/24 01:14:30;;;;;;;7.20;4.70;;;2.50;99.90;;;;;;4868889;29;20432;-81
2022/02/24 01:17:14;;;;;;;6.90;5.10;;;2.50;99.90;;;;;;4869623;29;20448;-80
2022/02/24 01:19:59;;;;;;;8.17;4.97;;;2.50;99.90;;;;;;4869279;29;20394;-80
2022/02/24 01:22:44;;;;;;;5.97;5.47;;;2.60;99.90;;;;;;4869413;29;20369;-80
2022/02/24 01:25:28;;;;;;;6.00;3.73;;;2.60;99.90;;;;;;4869608;29;20487;-81
2022/02/24 01:28:16;;;;;;;7.13;4.47;;;2.50;99.90;;;;;;4870418;29;20366;-81
2022/02/24 01:31:00;;;;;;;8.60;3.83;;;2.50;99.90;;;;;;4871188;29;20425;-80
2022/02/24 01:33:45;;;;;;;4.80;4.33;;;2.50;99.90;;;;;;4871561;29;20458;-81
2022/02/24 01:36:29;;;;;;;11.60;4.70;;;2.50;99.90;;;;;;4871265;29;20399;-80
2022/02/24 01:39:14;;;;;;;7.90;4.10;;;2.50;99.90;;;;;;4871220;29;20741;-80
2022/02/24 01:41:59;;;;;;;5.33;4.73;;;2.70;99.90;;;;;;4870503;29;20837;-80
2022/02/24 01:44:46;;;;;;;17.83;6.10;;;2.70;99.90;;;;;;4872123;29;20395;-79
2022/02/24 01:47:31;;;;;;;18.73;4.40;;;2.60;99.90;;;;;;4870779;29;20380;-79
2022/02/24 01:50:15;;;;;;;6.60;3.93;;;2.80;99.90;;;;;;4882946;29;20438;-80
2022/02/24 01:53:00;;;;;;;7.53;4.03;;;2.70;99.90;;;;;;4871447;29;20427;-79
2022/02/24 01:55:45;;;;;;;7.50;4.67;;;2.70;99.90;;;;;;4870280;29;20462;-81
2022/02/24 01:58:29;;;;;;;4.00;3.33;;;2.70;99.90;;;;;;4854844;29;20365;-80
2022/02/24 02:01:14;;;;;;;14.47;5.00;;;2.80;99.90;;;;;;4868915;29;20387;-80
2022/02/24 02:03:59;;;;;;;7.27;4.87;;;2.60;99.90;;;;;;4868625;29;20394;-81
2022/02/24 02:06:44;;;;;;;7.17;4.10;;;2.50;99.90;;;;;;4868629;29;20418;-80
2022/02/24 02:09:29;;;;;;;6.60;3.30;;;2.50;99.90;;;;;;4868423;29;20845;-80
2022/02/24 02:12:18;;;;;;;3.57;3.23;;;2.40;99.90;;;;;;4868049;29;20754;-80
2022/02/24 02:15:03;;;;;;;2.80;2.50;;;2.50;99.90;;;;;;4868555;29;20566;-80
2022/02/24 02:17:48;;;;;;;5.27;3.93;;;2.50;99.90;;;;;;4868423;29;20365;-80
2022/02/24 02:20:38;;;;;;;11.40;4.23;;;2.50;99.90;;;;;;4868455;29;20381;-80
2022/02/24 02:23:22;;;;;;;4.97;2.90;;;2.60;99.90;;;;;;4880782;29;20912;-81
2022/02/24 02:26:07;;;;;;;5.33;3.87;;;2.60;99.90;;;;;;4868975;29;20447;-81
2022/02/24 02:28:52;;;;;;;5.93;3.60;;;2.60;99.90;;;;;;4868531;29;20395;-81
2022/02/24 02:31:36;;;;;;;5.53;2.30;;;2.80;99.90;;;;;;4880826;29;20800;-80
2022/02/24 02:34:21;;;;;;;6.63;4.47;;;2.80;99.90;;;;;;4868563;29;20425;-81
2022/02/24 02:37:05;;;;;;;3.67;2.60;;;2.80;99.90;;;;;;4880995;29;20436;-81
2022/02/24 02:39:50;;;;;;;18.40;3.47;;;2.90;99.90;;;;;;4867792;29;20916;-81
2022/02/24 02:42:36;;;;;;;3.43;2.73;;;3.20;99.90;;;;;;4867909;29;20440;-80
2022/02/24 02:45:21;;;;;;;5.43;3.47;;;3.20;99.90;;;;;;4867954;29;20426;-81
2022/02/24 02:48:06;;;;;;;3.50;2.70;;;3.30;99.90;;;;;;4867884;29;20394;-81
2022/02/24 02:50:51;;;;;;;5.57;3.07;;;3.40;99.90;;;;;;4867469;29;20754;-81
2022/02/24 02:53:35;;;;;;;7.83;3.17;;;3.60;99.90;;;;;;4866902;29;20865;-81
2022/02/24 02:56:20;;;;;;;2.50;2.30;;;3.70;99.90;;;;;;4867701;29;20987;-81
2022/02/24 02:59:04;;;;;;;2.33;2.13;;;3.80;99.90;;;;;;4867823;29;20452;-81
2022/02/24 03:01:50;;;;;;;3.00;2.80;;;3.80;99.90;;;;;;4867719;29;20398;-80
2022/02/24 03:04:35;;;;;;;9.20;2.93;;;4.00;99.90;;;;;;4879264;29;20427;-81
2022/02/24 03:07:22;;;;;;;18.73;3.10;;;3.80;99.90;;;;;;4867919;29;20412;-81
2022/02/24 03:10:08;;;;;;;5.47;3.17;;;3.80;99.90;;;;;;4867649;29;20391;-81
2022/02/24 03:12:52;;;;;;;3.23;3.00;;;3.60;99.90;;;;;;4867265;29;20399;-81
2022/02/24 03:15:37;;;;;;;3.97;3.57;;;3.60;99.90;;;;;;4866603;29;20395;-81
2022/02/24 03:18:22;;;;;;;3.37;3.10;;;3.60;99.90;;;;;;4866560;29;20400;-81
2022/02/24 03:21:07;;;;;;;4.63;3.43;;;3.60;99.90;;;;;;4866847;29;20366;-81
2022/02/24 03:23:51;;;;;;;9.43;3.53;;;3.70;99.90;;;;;;4865756;29;20423;-81
2022/02/24 03:26:36;;;;;;;3.27;2.97;;;3.80;99.90;;;;;;4867208;29;20446;-81
2022/02/24 03:29:20;;;;;;;2.23;2.10;;;3.80;99.90;;;;;;4866875;29;20508;-80
2022/02/24 03:32:05;;;;;;;6.00;2.97;;;3.90;99.90;;;;;;4867223;29;20391;-81
2022/02/24 03:34:50;;;;;;;6.33;3.80;;;3.90;99.90;;;;;;4866759;29;20588;-80
2022/02/24 03:37:35;;;;;;;5.50;2.87;;;3.90;99.90;;;;;;4866868;29;20505;-81
2022/02/24 03:40:20;;;;;;;6.50;3.50;;;3.90;99.90;;;;;;4865574;29;20408;-81
2022/02/24 03:43:05;;;;;;;2.57;2.37;;;4.10;99.90;;;;;;4866447;29;20377;-80
2022/02/24 03:45:50;;;;;;;9.40;2.83;;;4.10;99.90;;;;;;4879141;29;20440;-81
2022/02/24 03:48:35;;;;;;;4.23;3.10;;;4.30;99.90;;;;;;4879320;29;20361;-81
2022/02/24 03:51:19;;;;;;;8.63;3.40;;;4.50;99.90;;;;;;4866699;29;20387;-81
2022/02/24 03:54:04;;;;;;;3.93;3.57;;;4.60;99.90;;;;;;4866494;29;21020;-81
2022/02/24 03:56:49;;;;;;;7.23;3.00;;;4.40;99.90;;;;;;4866653;29;20407;-81
2022/02/24 03:59:34;;;;;;;3.57;3.27;;;4.60;99.90;;;;;;4866828;29;20713;-80
2022/02/24 04:02:19;;;;;;;5.50;3.23;;;4.50;99.90;;;;;;4866666;29;20430;-82
2022/02/24 04:05:04;;;;;;;3.40;2.80;;;4.50;99.90;;;;;;4866236;29;20374;-81
2022/02/24 04:07:48;;;;;;;5.53;3.30;;;4.50;99.90;;;;;;4866162;29;20863;-80
2022/02/24 04:10:33;;;;;;;3.20;2.90;;;4.50;99.90;;;;;;4865813;29;20399;-81
2022/02/24 04:13:17;;;;;;;3.43;2.97;;;4.50;99.90;;;;;;4866684;29;20551;-81
2022/02/24 04:16:02;;;;;;;3.30;2.30;;;4.60;99.90;;;;;;4865818;29;20419;-81
2022/02/24 04:18:46;;;;;;;4.13;2.80;;;4.50;99.90;;;;;;4866483;29;20439;-81
2022/02/24 04:21:31;;;;;;;4.87;2.93;;;4.50;99.90;;;;;;4866876;29;20778;-81
2022/02/24 04:24:16;;;;;;;11.57;3.50;;;4.60;99.90;;;;;;4866555;29;20430;-81
2022/02/24 04:27:00;;;;;;;5.37;3.10;;;4.40;99.90;;;;;;4866655;29;20969;-81
2022/02/24 04:29:45;;;;;;;2.70;2.50;;;4.60;99.90;;;;;;4879765;29;20429;-81
2022/02/24 04:32:29;;;;;;;6.03;2.90;;;4.40;99.90;;;;;;4868378;29;20905;-81
2022/02/24 04:35:14;;;;;;;13.33;5.37;;;4.60;99.90;;;;;;4882545;29;20429;-80
2022/02/24 04:37:59;;;;;;;5.73;2.83;;;4.60;99.90;;;;;;4872376;29;20535;-81
2022/02/24 04:40:43;;;;;;;3.80;3.40;;;4.70;99.90;;;;;;4870552;29;20870;-81
2022/02/24 04:43:28;;;;;;;2.00;1.80;;;4.70;99.90;;;;;;4870660;29;20506;-81
2022/02/24 04:46:12;;;;;;;3.13;2.70;;;4.60;99.90;;;;;;4867786;29;20510;-79
2022/02/24 04:48:58;;;;;;;2.90;2.60;;;4.50;99.90;;;;;;4877232;29;20429;-81
2022/02/24 04:51:43;;;;;;;5.43;4.00;;;4.50;99.90;;;;;;4869387;29;20413;-80
2022/02/24 04:54:27;;;;;;;4.63;4.33;;;4.50;99.90;;;;;;4870046;29;20469;-81
2022/02/24 04:57:12;;;;;;;3.10;2.90;;;4.70;99.90;;;;;;4873902;29;20908;-79
2022/02/24 04:59:57;;;;;;;4.10;2.97;;;4.50;99.90;;;;;;4871746;29;20398;-80
2022/02/24 05:02:41;;;;;;;5.13;2.90;;;4.50;99.90;;;;;;4870074;29;20414;-82
2022/02/24 05:05:26;;;;;;;4.80;3.03;;;4.60;99.90;;;;;;4870668;29;20403;-82
2022/02/24 05:08:11;;;;;;;2.67;2.27;;;4.60;99.90;;;;;;4870104;29;20420;-81
2022/02/24 05:10:55;;;;;;;9.33;4.30;;;4.80;99.90;;;;;;4863045;29;20407;-82
2022/02/24 05:13:40;;;;;;;13.90;3.53;;;4.90;99.90;;;;;;4882102;29;20515;-81
2022/02/24 05:16:24;;;;;;;6.97;3.67;;;5.00;99.90;;;;;;4882441;29;20382;-81
2022/02/24 05:19:09;;;;;;;4.33;2.23;;;5.10;99.90;;;;;;4873709;29;20771;-79
2022/02/24 05:21:54;;;;;;;6.70;3.00;;;5.20;99.90;;;;;;4868349;29;20395;-82
2022/02/24 05:24:38;;;;;;;4.23;3.17;;;5.20;99.90;;;;;;4870069;29;20391;-82
2022/02/24 05:27:22;;;;;;;3.70;3.40;;;5.10;99.90;;;;;;4869979;29;20382;-81
2022/02/24 05:30:08;;;;;;;16.20;2.30;;;5.00;99.90;;;;;;4870449;29;20444;-79
2022/02/24 05:32:52;;;;;;;4.70;2.33;;;5.10;99.90;;;;;;4870136;29;20410;-80
2022/02/24 05:35:37;;;;;;;2.97;2.50;;;4.90;99.90;;;;;;4869899;29;20808;-80
2022/02/24 05:38:22;;;;;;;8.37;3.40;;;4.80;99.90;;;;;;4869982;29;20398;-80
2022/02/24 05:41:06;;;;;;;4.83;3.27;;;4.90;99.90;;;;;;4869389;29;20395;-80
2022/02/24 05:43:52;;;;;;;3.30;2.90;;;4.40;99.90;;;;;;4882242;29;20424;-80
2022/02/24 05:46:36;;;;;;;2.73;2.30;;;4.60;99.90;;;;;;4875316;29;20390;-81
2022/02/24 05:49:20;;;;;;;8.23;3.03;;;4.60;99.90;;;;;;4870017;29;20471;-82
2022/02/24 05:52:06;;;;;;;4.43;4.07;;;4.80;99.90;;;;;;4869928;29;20411;-81
2022/02/24 05:54:50;;;;;;;12.20;3.80;;;4.60;99.90;;;;;;4869440;29;20482;-80
2022/02/24 05:57:34;;;;;;;4.77;2.73;;;4.50;99.90;;;;;;4869276;29;20395;-81
2022/02/24 06:00:18;;;;;;;11.80;2.87;;;4.30;99.90;;;;;;4868658;29;20397;-82
2022/02/24 06:03:03;;;;;;;8.53;3.40;;;4.30;99.90;;;;;;4869401;29;20387;-80
2022/02/24 06:05:51;;;;;;;2.70;2.50;;;4.30;99.90;;;;;;4868905;29;20403;-81
2022/02/24 06:08:36;;;;;;;4.70;3.07;;;4.30;99.90;;;;;;4868565;29;20969;-81
2022/02/24 06:11:23;;;;;;;4.20;3.00;;;4.20;99.90;;;;;;4868842;29;20431;-82
2022/02/24 06:14:08;;;;;;;4.50;3.00;;;4.30;99.90;;;;;;4867809;29;20485;-80
2022/02/24 06:16:52;;;;;;;5.23;3.43;;;4.30;99.90;;;;;;4867748;29;20538;-78
2022/02/24 06:19:39;;;;;;;6.53;2.83;;;4.30;99.90;;;;;;4866923;29;20769;-79
2022/02/24 06:22:24;;;;;;;4.33;3.37;;;4.30;99.90;;;;;;4868836;29;20426;-78
2022/02/24 06:25:09;;;;;;;12.20;3.97;;;4.10;99.90;;;;;;4864433;29;20435;-80
2022/02/24 06:27:53;;;;;;;7.47;2.33;;;4.30;99.90;;;;;;4863350;29;20740;-80
2022/02/24 06:30:38;;;;;;;3.20;2.40;;;4.30;99.90;;;;;;4870890;29;20417;-80
2022/02/24 06:33:23;;;;;;;2.53;2.33;;;4.40;99.90;;;;;;4866492;29;20466;-80
2022/02/24 06:36:07;;;;;;;3.60;2.70;;;4.40;99.90;;;;;;4865891;29;20448;-80
2022/02/24 06:38:53;;;;;;;4.30;3.33;;;4.20;99.90;;;;;;4866283;29;20409;-80
2022/02/24 06:41:38;;;;;;;3.13;2.87;;;4.30;99.90;;;;;;4865630;29;20957;-81
2022/02/24 06:44:22;;;;;;;2.30;2.10;;;4.40;99.90;;;;;;4874970;29;20826;-80
2022/02/24 06:47:06;;;;;;;6.93;2.73;;;4.40;99.90;;;;;;4849706;29;20496;-81
2022/02/24 06:49:51;;;;;;;4.03;2.57;;;4.50;99.90;;;;;;4861375;29;20430;-81
2022/02/24 06:52:36;;;;;;;6.07;3.47;;;4.60;99.90;;;;;;4849283;29;20479;-80
2022/02/24 06:55:21;;;;;;;5.13;2.93;;;4.40;99.90;;;;;;4865075;29;20494;-81
2022/02/24 06:58:06;;;;;;;4.17;3.63;;;4.40;99.90;;;;;;4862586;29;20415;-81
2022/02/24 07:00:52;;;;;;;6.43;3.00;;;4.40;99.90;;;;;;4862974;29;20423;-81
2022/02/24 07:03:36;;;;;;;2.17;2.07;;;4.60;99.90;;;;;;4865703;29;20389;-81
2022/02/24 07:06:21;;;;;;;3.47;3.17;;;4.40;99.90;;;;;;4865285;29;20560;-81
2022/02/24 07:09:06;;;;;;;4.63;2.50;;;4.40;99.90;;;;;;4865281;29;20444;-80
2022/02/24 07:11:50;;;;;;;4.37;2.23;;;4.40;99.90;;;;;;4863502;29;20446;-80
2022/02/24 07:14:35;;;;;;;6.00;2.97;;;4.50;99.90;;;;;;4860711;29;20525;-80
2022/02/24 07:17:19;;;;;;;5.40;3.40;;;4.60;99.90;;;;;;4861962;29;20409;-81
2022/02/24 07:20:05;;;;;;;6.60;3.40;;;4.70;99.90;;;;;;4862862;29;20434;-81
2022/02/24 07:22:49;;;;;;;4.07;2.93;;;4.70;99.90;;;;;;4859038;29;20839;-81
2022/02/24 07:25:34;;;;;;;2.60;2.10;;;4.90;99.90;;;;;;4861811;29;20430;-80
2022/02/24 07:28:18;;;;;;;6.50;2.90;;;4.80;99.90;;;;;;4872055;29;20419;-80
2022/02/24 07:31:03;;;;;;;5.33;3.20;;;4.90;99.90;;;;;;4864078;29;20455;-81
2022/02/24 07:33:48;;;;;;;2.90;2.70;;;4.90;99.90;;;;;;4863158;29;20522;-82
2022/02/24 07:36:33;;;;;;;8.63;2.97;;;5.00;99.90;;;;;;4863707;29;20435;-81
2022/02/24 07:39:18;;;;;;;5.43;3.37;;;5.00;99.90;;;;;;4856194;29;20466;-81
2022/02/24 07:42:02;;;;;;;3.90;3.07;;;4.90;99.90;;;;;;4846212;29;20453;-81
2022/02/24 07:44:47;;;;;;;6.40;3.33;;;5.10;99.90;;;;;;4856890;29;20434;-80
2022/02/24 07:47:31;;;;;;;4.90;3.30;;;5.30;99.90;;;;;;4858903;29;20942;-80
2022/02/24 07:50:36;;;;;;;3.60;2.90;;;5.10;99.90;;;;;;4858723;29;20401;-81
2022/02/24 07:53:22;;;;;;;2.30;2.10;;;5.00;99.90;;;;;;4846738;29;20523;-81
2022/02/24 07:56:06;;;;;;;4.80;3.03;;;5.10;99.90;;;;;;4836901;29;20507;-81
2022/02/24 07:58:51;;;;;;;8.20;2.63;;;5.10;99.90;;;;;;4835112;29;20976;-80
2022/02/24 08:01:36;;;;;;;3.50;3.20;;;5.20;99.90;;;;;;4836007;29;20483;-80
2022/02/24 08:04:22;;;;;;;4.60;2.67;;;5.40;99.90;;;;;;4853005;29;20427;-81
2022/02/24 08:07:07;;;;;;;3.20;2.90;;;5.30;99.90;;;;;;4837433;29;20455;-80
2022/02/24 08:09:51;;;;;;;4.40;2.47;;;5.40;99.90;;;;;;4837834;29;20468;-81
2022/02/24 08:12:39;;;;;;;3.10;2.37;;;5.30;99.90;;;;;;4837040;29;20625;-81
2022/02/24 08:15:23;;;;;;;5.93;2.70;;;5.40;99.90;;;;;;4838626;29;20449;-81
2022/02/24 08:18:08;;;;;;;7.50;3.37;;;5.50;99.90;;;;;;4839441;29;20433;-81
2022/02/24 08:20:52;;;;;;;3.67;2.77;;;5.60;99.90;;;;;;4838866;29;20427;-81
2022/02/24 08:23:36;;;;;;;3.70;2.60;;;5.60;99.90;;;;;;4842080;29;20446;-81
2022/02/24 08:26:21;;;;;;;5.97;4.30;;;5.50;99.90;;;;;;4841524;29;20419;-82
2022/02/24 08:29:06;;;;;;;6.70;2.90;;;5.70;99.90;;;;;;4874168;29;20464;-81
2022/02/24 08:31:50;;;;;;;5.93;3.17;;;5.60;99.90;;;;;;4844353;29;20496;-80
2022/02/24 08:34:35;;;;;;;6.20;3.70;;;5.70;99.90;;;;;;4866080;29;20494;-82
2022/02/24 08:37:20;;;;;;;3.40;3.10;;;5.70;99.90;;;;;;4863270;29;20764;-82
2022/02/24 08:40:06;;;;;;;2.17;2.00;;;5.80;99.90;;;;;;4852319;29;20857;-82
2022/02/24 08:42:51;;;;;;;3.70;3.00;;;5.90;99.90;;;;;;4842909;29;20513;-81
2022/02/24 08:45:37;;;;;;;3.27;2.70;;;6.10;99.90;;;;;;4840537;29;20435;-80
2022/02/24 08:48:23;;;;;;;10.10;3.00;;;6.20;99.90;;;;;;4842371;29;20424;-81
2022/02/24 08:51:08;;;;;;;5.60;3.03;;;6.10;99.90;;;;;;4838245;29;20448;-81
2022/02/24 08:53:53;;;;;;;8.53;4.10;;;6.10;99.90;;;;;;4843160;29;20471;-80
2022/02/24 08:56:37;;;;;;;3.20;2.37;;;6.10;99.90;;;;;;4859476;29;20470;-81
2022/02/24 08:59:22;;;;;;;6.73;3.00;;;6.20;99.90;;;;;;4870707;29;20476;-80
2022/02/24 09:02:07;;;;;;;4.57;3.27;;;6.30;99.90;;;;;;4862198;29;20425;-80
2022/02/24 09:04:52;;;;;;;6.57;3.37;;;6.30;99.90;;;;;;4864931;29;20943;-80
2022/02/24 09:07:36;;;;;;;6.77;3.87;;;6.40;99.90;;;;;;4863722;29;20548;-81
2022/02/24 09:10:21;;;;;;;9.50;3.40;;;6.50;99.90;;;;;;4870800;29;20801;-81
2022/02/24 09:13:06;;;;;;;3.60;3.30;;;6.80;99.90;;;;;;4862117;29;20409;-81
2022/02/24 09:15:51;;;;;;;5.53;5.00;;;7.10;99.90;;;;;;4869946;29;20433;-80
2022/02/24 09:18:36;;;;;;;5.30;3.63;;;7.60;99.90;;;;;;4859625;29;20463;-80
2022/02/24 09:21:21;;;;;;;2.97;2.50;;;7.70;99.90;;;;;;4863394;29;20538;-80
2022/02/24 09:24:06;;;;;;;7.97;3.27;;;7.80;99.90;;;;;;4864458;29;20421;-80
2022/02/24 09:26:51;;;;;;;7.23;3.47;;;8.30;99.90;;;;;;4864307;29;20807;-80
2022/02/24 09:29:37;;;;;;;8.13;5.70;;;8.80;99.90;;;;;;4868862;29;20441;-79
2022/02/24 09:32:22;;;;;;;5.13;3.10;;;8.30;99.90;;;;;;4863936;29;20800;-80
2022/02/24 09:35:07;;;;;;;5.00;3.20;;;8.40;99.90;;;;;;4865855;29;20466;-80
2022/02/24 09:37:52;;;;;;;3.00;2.57;;;8.40;99.90;;;;;;4875533;29;20499;-82
2022/02/24 09:40:37;;;;;;;3.23;2.83;;;8.50;99.90;;;;;;4850605;29;20475;-82
2022/02/24 09:43:26;;;;;;;3.50;3.03;;;8.50;99.90;;;;;;4847210;29;20434;-82
2022/02/24 09:46:12;;;;;;;9.30;3.13;;;8.30;99.90;;;;;;4847697;29;20422;-81
2022/02/24 09:48:57;;;;;;;4.73;3.17;;;8.70;99.90;;;;;;4847765;29;20612;-81
2022/02/24 09:51:43;;;;;;;5.43;2.93;;;8.20;99.90;;;;;;4857874;29;20456;-81
2022/02/24 09:54:28;;;;;;;6.13;3.13;;;8.60;99.90;;;;;;4869898;29;20473;-82
2022/02/24 09:57:12;;;;;;;5.93;2.70;;;8.80;99.90;;;;;;4874899;29;20473;-82
2022/02/24 09:59:56;;;;;;;13.57;3.47;;;8.70;99.90;;;;;;4858569;29;20547;-82
2022/02/24 10:02:41;;;;;;;5.23;3.67;;;8.60;99.90;;;;;;4860523;29;20454;-81
2022/02/24 10:05:25;;;;;;;4.40;3.07;;;8.60;99.90;;;;;;4858079;29;20524;-81
2022/02/24 10:08:10;;;;;;;5.43;4.27;;;9.00;99.90;;;;;;4862021;29;20446;-82
2022/02/24 10:10:58;;;;;;;6.93;3.43;;;9.60;99.90;;;;;;4859727;29;20506;-81
2022/02/24 10:13:56;;;;;;;4.90;3.77;;;10.20;99.90;;;;;;4861078;29;20543;-81
2022/02/24 10:17:00;;;;;;;5.30;4.33;;;11.60;99.90;;;;;;4861879;29;20464;-81
2022/02/24 10:19:47;;;;;;;5.93;3.90;;;12.90;99.90;;;;;;4849621;29;20446;-81
2022/02/24 10:22:34;;;;;;;6.90;3.80;;;13.80;99.90;;;;;;4856979;29;20454;-82
2022/02/24 10:25:22;;;;;;;4.20;3.20;;;14.60;99.90;;;;;;4862620;29;20447;-81
2022/02/24 10:28:06;;;;;;;3.63;3.20;;;13.00;99.90;;;;;;4872371;29;20443;-81
2022/02/24 10:30:51;;;;;;;11.83;3.70;;;12.40;99.90;;;;;;4864764;29;20503;-80
2022/02/24 10:33:38;;;;;;;10.13;4.60;;;12.80;99.90;;;;;;4862620;29;20462;-81
2022/02/24 10:36:25;;;;;;;3.17;2.97;;;12.70;99.90;;;;;;4874537;29;20430;-79
2022/02/24 10:39:13;;;;;;;3.60;2.60;;;12.80;99.90;;;;;;4866620;29;20538;-80
2022/02/24 10:42:02;;;;;;;7.10;4.13;;;12.40;99.90;;;;;;4856713;29;20450;-79
2022/02/24 10:45:05;;;;;;;7.23;3.97;;;12.50;99.90;;;;;;4875867;29;20948;-80
2022/02/24 10:47:59;;;;;;;4.47;3.90;;;13.40;99.90;;;;;;4865389;29;20506;-80
2022/02/24 10:50:55;;;;;;;5.43;3.47;;;13.10;99.90;;;;;;4863805;29;20467;-81
2022/02/24 10:53:40;;;;;;;6.43;3.30;;;12.60;99.90;;;;;;4874233;29;20470;-80
2022/02/24 10:56:26;;;;;;;7.50;3.07;;;12.40;99.90;;;;;;4862632;29;20514;-81
2022/02/24 10:59:14;;;;;;;6.53;4.33;;;12.00;99.90;;;;;;4864324;29;20463;-79
2022/02/24 11:01:59;;;;;;;6.03;4.10;;;12.40;99.90;;;;;;4863274;29;20446;-80
2022/02/24 11:04:52;;;;;;;6.73;3.40;;;12.80;99.90;;;;;;4864468;29;20780;-79
2022/02/24 11:07:37;;;;;;;11.33;4.70;;;12.80;99.90;;;;;;4861204;29;20523;-81
2022/02/24 11:10:22;;;;;;;7.20;3.77;;;13.60;99.90;;;;;;4865738;29;20434;-80
2022/02/24 11:13:06;;;;;;;3.43;3.13;;;13.50;99.90;;;;;;4864660;29;20422;-81
2022/02/24 11:15:51;;;;;;;7.13;3.30;;;13.60;99.90;;;;;;4873103;29;20454;-81
2022/02/24 11:18:39;;;;;;;3.07;2.87;;;13.70;99.90;;;;;;4874366;29;20430;-80
2022/02/24 11:21:26;;;;;;;3.20;2.90;;;13.60;99.90;;;;;;4872566;29;20469;-82
2022/02/24 11:24:10;;;;;;;5.47;3.03;;;13.80;99.90;;;;;;4863467;29;20565;-80
2022/02/24 11:27:06;;;;;;;3.93;2.57;;;14.20;99.90;;;;;;4857681;29;20442;-80
2022/02/24 11:30:05;;;;;;;4.83;2.70;;;15.20;99.90;;;;;;4859799;29;20450;-82
2022/02/24 11:32:50;;;;;;;3.17;2.70;;;15.40;99.90;;;;;;4859430;29;20434;-83
2022/02/24 11:35:35;;;;;;;4.23;2.83;;;15.10;99.90;;;;;;4870361;29;21343;-80
2022/02/24 11:38:19;;;;;;;3.00;2.80;;;15.80;99.90;;;;;;4861135;29;20510;-80
2022/02/24 11:41:05;;;;;;;5.63;2.43;;;15.80;99.90;;;;;;4860365;29;20438;-80
2022/02/24 11:43:51;;;;;;;2.70;2.50;;;14.90;99.90;;;;;;4861278;29;20979;-82
2022/02/24 11:46:56;;;;;;;4.93;2.83;;;15.60;99.90;;;;;;4861538;29;20438;-81
2022/02/24 11:50:07;;;;;;;3.40;2.77;;;16.30;99.90;;;;;;4864292;29;20429;-81
2022/02/24 11:52:52;;;;;;;2.23;2.13;;;16.60;99.90;;;;;;4858973;29;20506;-81
2022/02/24 11:55:43;;;;;;;3.07;2.87;;;15.90;99.90;;;;;;4846224;29;20547;-81
2022/02/24 11:58:52;;;;;;;3.37;2.47;;;15.60;99.90;;;;;;4874215;29;20438;-82
2022/02/24 12:01:43;;;;;;;3.70;2.80;;;15.70;99.90;;;;;;4861508;29;20450;-80
2022/02/24 12:04:29;;;;;;;4.53;3.10;;;14.70;99.90;;;;;;4860986;29;20445;-82
2022/02/24 12:07:24;;;;;;;3.43;2.70;;;14.20;99.90;;;;;;4843712;29;20758;-83
2022/02/24 12:10:11;;;;;;;5.03;2.93;;;14.70;99.90;;;;;;4831383;29;20499;-82
2022/02/24 12:12:57;;;;;;;3.53;3.23;;;14.50;99.90;;;;;;4871711;29;20468;-82
2022/02/24 12:15:41;;;;;;;4.20;2.73;;;14.00;99.90;;;;;;4864984;29;20468;-81
2022/02/24 12:18:37;;;;;;;5.30;2.70;;;13.60;99.90;;;;;;4884124;29;20423;-82
2022/02/24 12:21:38;;;;;;;4.60;2.70;;;13.50;99.90;;;;;;4862217;29;20448;-81
2022/02/24 12:24:30;;;;;;;3.10;2.80;;;13.30;99.90;;;;;;4887924;29;20419;-80
2022/02/24 12:27:34;;;;;;;2.73;2.53;;;13.10;99.90;;;;;;4881226;29;20430;-80
2022/02/24 12:30:25;;;;;;;2.53;2.17;;;12.80;99.90;;;;;;4875621;29;20981;-79
2022/02/24 12:33:18;;;;;;;5.53;2.23;;;12.90;99.90;;;;;;4859940;29;20431;-81
2022/02/24 12:36:03;;;;;;;2.60;1.97;;;12.80;99.90;;;;;;4868716;29;20439;-81
2022/02/24 12:38:49;;;;;;;3.23;2.07;;;12.80;99.90;;;;;;4838361;29;20419;-80
2022/02/24 12:41:33;;;;;;;2.80;2.50;;;12.90;99.90;;;;;;4872391;29;20957;-81
2022/02/24 12:44:22;;;;;;;3.53;2.60;;;12.80;99.90;;;;;;4849440;29;20527;-82
2022/02/24 12:47:07;;;;;;;1.70;1.60;;;13.30;99.90;;;;;;4856172;29;20429;-80
2022/02/24 12:49:54;;;;;;;1.90;1.80;;;13.80;99.90;;;;;;4866160;29;20444;-83
2022/02/24 12:52:58;;;;;;;1.43;1.30;;;13.90;99.90;;;;;;4876201;29;20494;-81
2022/02/24 12:55:44;;;;;;;3.00;1.80;;;14.20;99.90;;;;;;4869427;29;20608;-81
2022/02/24 12:58:29;;;;;;;5.67;2.20;;;14.80;99.90;;;;;;4886604;29;20425;-81
2022/02/24 13:01:14;;;;;;;3.67;2.17;;;15.40;99.90;;;;;;4905050;29;20435;-80
2022/02/24 13:03:58;;;;;;;1.93;1.70;;;16.30;99.90;;;;;;4890367;29;20480;-82
2022/02/24 13:06:44;;;;;;;2.70;2.07;;;16.50;99.90;;;;;;4909996;29;20434;-81
2022/02/24 13:09:45;;;;;;;5.40;2.17;;;15.10;99.90;;;;;;4903332;29;20460;-82
2022/02/24 13:12:38;;;;;;;9.43;2.17;;;14.80;99.90;;;;;;4902192;29;20444;-81
2022/02/24 13:15:29;;;;;;;2.70;1.90;;;14.70;99.90;;;;;;4905405;29;20533;-80
2022/02/24 13:18:17;;;;;;;2.90;2.50;;;14.60;99.90;;;;;;4891122;29;20490;-80
2022/02/24 13:21:03;;;;;;;4.40;2.30;;;14.50;99.90;;;;;;4874139;29;20923;-80
2022/02/24 13:23:47;;;;;;;2.50;1.90;;;14.20;99.90;;;;;;4872807;29;20426;-81
2022/02/24 13:26:34;;;;;;;3.73;2.37;;;14.30;99.90;;;;;;4887547;29;20486;-82
2022/02/24 13:29:20;;;;;;;5.60;1.60;;;14.20;99.90;;;;;;4862860;29;20439;-82
2022/02/24 13:32:15;;;;;;;2.17;1.97;;;13.90;99.90;;;;;;4868818;29;20461;-81
2022/02/24 13:35:00;;;;;;;3.70;2.00;;;14.20;99.90;;;;;;4872899;29;20541;-81
2022/02/24 13:37:50;;;;;;;1.93;1.80;;;13.90;99.90;;;;;;4871007;29;20460;-78
2022/02/24 13:40:45;;;;;;;2.23;1.70;;;13.70;99.90;;;;;;4871735;29;20474;-81
2022/02/24 13:43:30;;;;;;;5.50;2.00;;;13.70;99.90;;;;;;4866476;29;20411;-81
2022/02/24 13:46:16;;;;;;;3.73;2.07;;;13.80;99.90;;;;;;4853941;29;20472;-79
2022/02/24 13:49:08;;;;;;;2.00;1.80;;;13.70;99.90;;;;;;4862667;29;20414;-80
2022/02/24 13:51:53;;;;;;;4.37;1.93;;;13.60;99.90;;;;;;4869737;29;20431;-80
2022/02/24 13:54:37;;;;;;;2.70;1.50;;;13.30;99.90;;;;;;4848406;29;20534;-81
2022/02/24 13:57:23;;;;;;;2.77;1.73;;;13.40;99.90;;;;;;4851115;29;20466;-81
2022/02/24 14:00:12;;;;;;;5.00;2.97;;;13.40;99.90;;;;;;4881847;29;20434;-81
2022/02/24 14:03:09;;;;;;;2.50;2.30;;;13.40;99.90;;;;;;4870279;29;20414;-81
2022/02/24 14:06:11;;;;;;;2.20;2.00;;;13.60;99.90;;;;;;4856414;29;20452;-80
2022/02/24 14:08:58;;;;;;;4.70;2.20;;;13.70;99.90;;;;;;4880470;29;20474;-82
2022/02/24 14:11:45;;;;;;;3.00;2.10;;;13.70;99.90;;;;;;4882500;29;20918;-81
2022/02/24 14:14:37;;;;;;;3.00;1.70;;;13.50;99.90;;;;;;4882961;29;20919;-81
2022/02/24 14:17:22;;;;;;;8.33;2.57;;;13.50;99.90;;;;;;4863956;29;20407;-81
2022/02/24 14:20:26;;;;;;;3.47;2.60;;;13.60;99.90;;;;;;4843868;29;20436;-80
2022/02/24 14:23:14;;;;;;;2.33;1.87;;;13.50;99.90;;;;;;4890719;29;20507;-82
2022/02/24 14:25:59;;;;;;;2.70;2.20;;;13.60;99.90;;;;;;4850910;29;20480;-81
2022/02/24 14:28:43;;;;;;;1.50;1.40;;;13.60;99.90;;;;;;4833141;29;20449;-81
2022/02/24 14:31:28;;;;;;;2.80;2.60;;;13.30;99.90;;;;;;4837153;29;20464;-81